sensor_id;sensor_type;location;lat;lon;timestamp;P1;durP1;ratioP1;P2;durP2;ratioP2
7213;SDS011;3648;50.614;13.830;2023-08-30T00:01:03;0.30;;;0.30;;
7213;SDS011;3648;50.614;13.830;2023-08-30T00:03:31;0.40;;;0.40;;
7213;SDS011;3648;50.614;13.830;2023-08-30T00:06:01;0.40;;;0.40;;
7213;SDS011;3648;50.614;13.830;2023-08-30T00:08:29;0.40;;;0.40;;
7213;SDS011;3648;50.614;13.830;2023-08-30T00:10:57;0.40;;;0.40;;
7213;SDS011;3648;50.614;13.830;2023-08-30T00:13:25;0.40;;;0.40;;
7213;SDS011;3648;50.614;13.830;2023-08-30T00:15:52;1.10;;;0.40;;
7213;SDS011;3648;50.614;13.830;2023-08-30T00:18:19;0.33;;;0.33;;
7213;SDS011;3648;50.614;13.830;2023-08-30T00:20:45;0.33;;;0.33;;
7213;SDS011;3648;50.614;13.830;2023-08-30T00:23:12;0.40;;;0.40;;
7213;SDS011;3648;50.614;13.830;2023-08-30T00:25:39;0.30;;;0.30;;
7213;SDS011;3648;50.614;13.830;2023-08-30T00:28:08;0.70;;;0.40;;
7213;SDS011;3648;50.614;13.830;2023-08-30T00:30:35;0.40;;;0.40;;
7213;SDS011;3648;50.614;13.830;2023-08-30T00:33:02;0.30;;;0.30;;
7213;SDS011;3648;50.614;13.830;2023-08-30T00:35:29;0.30;;;0.30;;
7213;SDS011;3648;50.614;13.830;2023-08-30T00:37:56;0.30;;;0.30;;
7213;SDS011;3648;50.614;13.830;2023-08-30T00:40:23;0.40;;;0.40;;
7213;SDS011;3648;50.614;13.830;2023-08-30T00:42:50;0.30;;;0.30;;
7213;SDS011;3648;50.614;13.830;2023-08-30T00:45:19;0.20;;;0.20;;
7213;SDS011;3648;50.614;13.830;2023-08-30T00:47:46;0.40;;;0.30;;
7213;SDS011;3648;50.614;13.830;2023-08-30T00:50:13;0.30;;;0.30;;
7213;SDS011;3648;50.614;13.830;2023-08-30T00:52:41;0.50;;;0.50;;
7213;SDS011;3648;50.614;13.830;2023-08-30T00:55:08;0.40;;;0.40;;
7213;SDS011;3648;50.614;13.830;2023-08-30T00:57:36;0.30;;;0.30;;
7213;SDS011;3648;50.614;13.830;2023-08-30T01:00:04;0.30;;;0.30;;
7213;SDS011;3648;50.614;13.830;2023-08-30T01:02:36;0.27;;;0.27;;
7213;SDS011;3648;50.614;13.830;2023-08-30T01:05:04;0.40;;;0.40;;
7213;SDS011;3648;50.614;13.830;2023-08-30T01:07:31;0.40;;;0.40;;
7213;SDS011;3648;50.614;13.830;2023-08-30T01:09:58;0.30;;;0.30;;
7213;SDS011;3648;50.614;13.830;2023-08-30T01:12:27;0.30;;;0.30;;
7213;SDS011;3648;50.614;13.830;2023-08-30T01:15:03;0.30;;;0.20;;
7213;SDS011;3648;50.614;13.830;2023-08-30T01:17:37;0.73;;;0.30;;
7213;SDS011;3648;50.614;13.830;2023-08-30T01:20:06;0.37;;;0.37;;
7213;SDS011;3648;50.614;13.830;2023-08-30T01:22:40;0.50;;;0.50;;
7213;SDS011;3648;50.614;13.830;2023-08-30T01:25:14;0.40;;;0.40;;
7213;SDS011;3648;50.614;13.830;2023-08-30T01:27:47;0.47;;;0.47;;
7213;SDS011;3648;50.614;13.830;2023-08-30T01:30:16;0.47;;;0.47;;
7213;SDS011;3648;50.614;13.830;2023-08-30T01:32:45;0.80;;;0.50;;
7213;SDS011;3648;50.614;13.830;2023-08-30T01:35:12;1.33;;;0.43;;
7213;SDS011;3648;50.614;13.830;2023-08-30T01:37:42;0.63;;;0.50;;
7213;SDS011;3648;50.614;13.830;2023-08-30T01:40:11;0.67;;;0.67;;
7213;SDS011;3648;50.614;13.830;2023-08-30T01:42:39;0.50;;;0.50;;
7213;SDS011;3648;50.614;13.830;2023-08-30T01:45:11;0.67;;;0.50;;
7213;SDS011;3648;50.614;13.830;2023-08-30T01:47:39;1.57;;;0.60;;
7213;SDS011;3648;50.614;13.830;2023-08-30T01:50:08;0.70;;;0.70;;
7213;SDS011;3648;50.614;13.830;2023-08-30T01:52:37;0.70;;;0.70;;
7213;SDS011;3648;50.614;13.830;2023-08-30T01:55:05;0.60;;;0.53;;
7213;SDS011;3648;50.614;13.830;2023-08-30T01:57:34;1.27;;;0.70;;
7213;SDS011;3648;50.614;13.830;2023-08-30T02:00:01;0.90;;;0.70;;
7213;SDS011;3648;50.614;13.830;2023-08-30T02:02:31;0.60;;;0.60;;
7213;SDS011;3648;50.614;13.830;2023-08-30T02:05:00;0.60;;;0.60;;
7213;SDS011;3648;50.614;13.830;2023-08-30T02:07:28;0.80;;;0.70;;
7213;SDS011;3648;50.614;13.830;2023-08-30T02:10:02;0.70;;;0.70;;
7213;SDS011;3648;50.614;13.830;2023-08-30T02:12:37;0.90;;;0.83;;
7213;SDS011;3648;50.614;13.830;2023-08-30T02:15:13;1.07;;;0.97;;
7213;SDS011;3648;50.614;13.830;2023-08-30T02:17:43;0.60;;;0.60;;
7213;SDS011;3648;50.614;13.830;2023-08-30T02:20:10;0.80;;;0.80;;
7213;SDS011;3648;50.614;13.830;2023-08-30T02:22:38;1.47;;;0.90;;
7213;SDS011;3648;50.614;13.830;2023-08-30T02:25:05;0.97;;;0.70;;
7213;SDS011;3648;50.614;13.830;2023-08-30T02:27:33;0.50;;;0.50;;
7213;SDS011;3648;50.614;13.830;2023-08-30T02:30:00;0.67;;;0.60;;
7213;SDS011;3648;50.614;13.830;2023-08-30T02:32:27;0.70;;;0.70;;
7213;SDS011;3648;50.614;13.830;2023-08-30T02:34:56;1.07;;;0.80;;
7213;SDS011;3648;50.614;13.830;2023-08-30T02:37:23;0.87;;;0.80;;
7213;SDS011;3648;50.614;13.830;2023-08-30T02:39:50;1.00;;;0.60;;
7213;SDS011;3648;50.614;13.830;2023-08-30T02:42:17;0.40;;;0.40;;
7213;SDS011;3648;50.614;13.830;2023-08-30T02:44:44;0.70;;;0.63;;
7213;SDS011;3648;50.614;13.830;2023-08-30T02:47:11;0.60;;;0.60;;
7213;SDS011;3648;50.614;13.830;2023-08-30T02:49:38;0.90;;;0.60;;
7213;SDS011;3648;50.614;13.830;2023-08-30T02:52:06;0.97;;;0.70;;
7213;SDS011;3648;50.614;13.830;2023-08-30T02:54:33;0.60;;;0.60;;
7213;SDS011;3648;50.614;13.830;2023-08-30T02:57:00;0.67;;;0.67;;
7213;SDS011;3648;50.614;13.830;2023-08-30T02:59:27;0.60;;;0.60;;
7213;SDS011;3648;50.614;13.830;2023-08-30T03:01:54;1.13;;;0.70;;
7213;SDS011;3648;50.614;13.830;2023-08-30T03:04:21;0.70;;;0.70;;
7213;SDS011;3648;50.614;13.830;2023-08-30T03:06:48;0.67;;;0.53;;
7213;SDS011;3648;50.614;13.830;2023-08-30T03:09:16;0.70;;;0.70;;
7213;SDS011;3648;50.614;13.830;2023-08-30T03:11:43;0.50;;;0.50;;
7213;SDS011;3648;50.614;13.830;2023-08-30T03:14:10;0.63;;;0.63;;
7213;SDS011;3648;50.614;13.830;2023-08-30T03:16:37;0.63;;;0.63;;
7213;SDS011;3648;50.614;13.830;2023-08-30T03:19:04;0.70;;;0.70;;
7213;SDS011;3648;50.614;13.830;2023-08-30T03:21:31;1.00;;;0.80;;
7213;SDS011;3648;50.614;13.830;2023-08-30T03:23:58;2.10;;;0.80;;
7213;SDS011;3648;50.614;13.830;2023-08-30T03:26:26;1.00;;;0.90;;
7213;SDS011;3648;50.614;13.830;2023-08-30T03:28:53;1.70;;;1.13;;
7213;SDS011;3648;50.614;13.830;2023-08-30T03:31:21;1.20;;;1.10;;
7213;SDS011;3648;50.614;13.830;2023-08-30T03:33:48;1.40;;;1.30;;
7213;SDS011;3648;50.614;13.830;2023-08-30T03:36:16;1.30;;;1.20;;
7213;SDS011;3648;50.614;13.830;2023-08-30T03:38:44;1.40;;;1.30;;
7213;SDS011;3648;50.614;13.830;2023-08-30T03:41:11;2.70;;;1.30;;
7213;SDS011;3648;50.614;13.830;2023-08-30T03:43:40;1.30;;;1.20;;
7213;SDS011;3648;50.614;13.830;2023-08-30T03:46:07;1.50;;;1.40;;
7213;SDS011;3648;50.614;13.830;2023-08-30T03:48:36;1.57;;;1.47;;
7213;SDS011;3648;50.614;13.830;2023-08-30T03:51:03;1.50;;;1.40;;
7213;SDS011;3648;50.614;13.830;2023-08-30T03:53:30;1.30;;;1.20;;
7213;SDS011;3648;50.614;13.830;2023-08-30T03:55:57;1.27;;;1.20;;
7213;SDS011;3648;50.614;13.830;2023-08-30T03:58:24;1.50;;;1.40;;
7213;SDS011;3648;50.614;13.830;2023-08-30T04:00:52;2.53;;;1.53;;
7213;SDS011;3648;50.614;13.830;2023-08-30T04:03:19;1.50;;;1.40;;
7213;SDS011;3648;50.614;13.830;2023-08-30T04:05:46;1.77;;;1.63;;
7213;SDS011;3648;50.614;13.830;2023-08-30T04:08:13;1.70;;;1.60;;
7213;SDS011;3648;50.614;13.830;2023-08-30T04:10:40;1.20;;;1.10;;
7213;SDS011;3648;50.614;13.830;2023-08-30T04:13:08;1.50;;;1.00;;
7213;SDS011;3648;50.614;13.830;2023-08-30T04:15:36;1.93;;;1.50;;
7213;SDS011;3648;50.614;13.830;2023-08-30T04:18:05;2.13;;;1.40;;
7213;SDS011;3648;50.614;13.830;2023-08-30T04:20:33;1.50;;;1.23;;
7213;SDS011;3648;50.614;13.830;2023-08-30T04:23:01;1.30;;;1.20;;
7213;SDS011;3648;50.614;13.830;2023-08-30T04:25:29;1.53;;;1.10;;
7213;SDS011;3648;50.614;13.830;2023-08-30T04:27:56;2.37;;;1.00;;
7213;SDS011;3648;50.614;13.830;2023-08-30T04:30:23;1.20;;;1.10;;
7213;SDS011;3648;50.614;13.830;2023-08-30T04:32:50;1.10;;;1.00;;
7213;SDS011;3648;50.614;13.830;2023-08-30T04:35:18;1.20;;;1.10;;
7213;SDS011;3648;50.614;13.830;2023-08-30T04:37:45;1.50;;;1.40;;
7213;SDS011;3648;50.614;13.830;2023-08-30T04:40:13;1.10;;;1.00;;
7213;SDS011;3648;50.614;13.830;2023-08-30T04:42:40;1.07;;;0.97;;
7213;SDS011;3648;50.614;13.830;2023-08-30T04:45:07;2.40;;;1.33;;
7213;SDS011;3648;50.614;13.830;2023-08-30T04:47:35;1.30;;;1.20;;
7213;SDS011;3648;50.614;13.830;2023-08-30T04:50:02;1.20;;;1.10;;
7213;SDS011;3648;50.614;13.830;2023-08-30T04:52:31;1.40;;;1.30;;
7213;SDS011;3648;50.614;13.830;2023-08-30T04:54:58;2.83;;;1.33;;
7213;SDS011;3648;50.614;13.830;2023-08-30T04:57:25;1.40;;;1.30;;
7213;SDS011;3648;50.614;13.830;2023-08-30T04:59:52;1.97;;;1.17;;
7213;SDS011;3648;50.614;13.830;2023-08-30T05:02:19;1.63;;;1.03;;
7213;SDS011;3648;50.614;13.830;2023-08-30T05:04:46;2.47;;;1.30;;
7213;SDS011;3648;50.614;13.830;2023-08-30T05:07:13;1.30;;;1.20;;
7213;SDS011;3648;50.614;13.830;2023-08-30T05:09:41;1.30;;;1.20;;
7213;SDS011;3648;50.614;13.830;2023-08-30T05:12:08;1.07;;;1.07;;
7213;SDS011;3648;50.614;13.830;2023-08-30T05:14:35;1.40;;;1.30;;
7213;SDS011;3648;50.614;13.830;2023-08-30T05:17:03;1.50;;;1.40;;
7213;SDS011;3648;50.614;13.830;2023-08-30T05:19:30;1.60;;;1.27;;
7213;SDS011;3648;50.614;13.830;2023-08-30T05:21:57;1.60;;;1.50;;
7213;SDS011;3648;50.614;13.830;2023-08-30T05:24:23;1.70;;;1.40;;
7213;SDS011;3648;50.614;13.830;2023-08-30T05:26:52;1.20;;;1.10;;
7213;SDS011;3648;50.614;13.830;2023-08-30T05:29:20;1.33;;;1.23;;
7213;SDS011;3648;50.614;13.830;2023-08-30T05:31:48;3.70;;;1.80;;
7213;SDS011;3648;50.614;13.830;2023-08-30T05:34:14;1.83;;;1.50;;
7213;SDS011;3648;50.614;13.830;2023-08-30T05:36:41;1.40;;;1.30;;
7213;SDS011;3648;50.614;13.830;2023-08-30T05:39:08;1.30;;;1.20;;
7213;SDS011;3648;50.614;13.830;2023-08-30T05:41:35;2.40;;;1.20;;
7213;SDS011;3648;50.614;13.830;2023-08-30T05:44:04;1.40;;;1.30;;
7213;SDS011;3648;50.614;13.830;2023-08-30T05:46:32;1.93;;;1.40;;
7213;SDS011;3648;50.614;13.830;2023-08-30T05:48:59;1.30;;;1.20;;
7213;SDS011;3648;50.614;13.830;2023-08-30T05:51:27;1.13;;;1.10;;
7213;SDS011;3648;50.614;13.830;2023-08-30T05:53:54;1.23;;;1.13;;
7213;SDS011;3648;50.614;13.830;2023-08-30T05:56:21;1.40;;;1.30;;
7213;SDS011;3648;50.614;13.830;2023-08-30T05:58:48;2.53;;;1.37;;
7213;SDS011;3648;50.614;13.830;2023-08-30T06:01:17;2.73;;;1.60;;
7213;SDS011;3648;50.614;13.830;2023-08-30T06:03:44;1.70;;;1.30;;
7213;SDS011;3648;50.614;13.830;2023-08-30T06:06:12;3.00;;;1.57;;
7213;SDS011;3648;50.614;13.830;2023-08-30T06:08:39;2.00;;;1.40;;
7213;SDS011;3648;50.614;13.830;2023-08-30T06:11:06;1.87;;;1.67;;
7213;SDS011;3648;50.614;13.830;2023-08-30T06:13:32;2.63;;;1.60;;
7213;SDS011;3648;50.614;13.830;2023-08-30T06:16:00;1.97;;;1.60;;
7213;SDS011;3648;50.614;13.830;2023-08-30T06:18:29;2.70;;;1.90;;
7213;SDS011;3648;50.614;13.830;2023-08-30T06:20:57;2.10;;;1.90;;
7213;SDS011;3648;50.614;13.830;2023-08-30T06:23:24;1.90;;;1.60;;
7213;SDS011;3648;50.614;13.830;2023-08-30T06:25:54;3.07;;;2.23;;
7213;SDS011;3648;50.614;13.830;2023-08-30T06:28:21;2.33;;;1.77;;
7213;SDS011;3648;50.614;13.830;2023-08-30T06:30:48;2.87;;;2.37;;
7213;SDS011;3648;50.614;13.830;2023-08-30T06:33:16;3.13;;;2.40;;
7213;SDS011;3648;50.614;13.830;2023-08-30T06:35:47;2.57;;;2.20;;
7213;SDS011;3648;50.614;13.830;2023-08-30T06:38:14;2.30;;;2.10;;
7213;SDS011;3648;50.614;13.830;2023-08-30T06:40:43;2.40;;;2.17;;
7213;SDS011;3648;50.614;13.830;2023-08-30T06:43:10;2.40;;;2.03;;
7213;SDS011;3648;50.614;13.830;2023-08-30T06:45:38;2.97;;;2.27;;
7213;SDS011;3648;50.614;13.830;2023-08-30T06:48:06;2.40;;;2.20;;
7213;SDS011;3648;50.614;13.830;2023-08-30T06:50:33;2.83;;;2.63;;
7213;SDS011;3648;50.614;13.830;2023-08-30T06:53:02;2.70;;;2.27;;
7213;SDS011;3648;50.614;13.830;2023-08-30T06:55:30;4.87;;;2.57;;
7213;SDS011;3648;50.614;13.830;2023-08-30T06:57:58;2.60;;;2.37;;
7213;SDS011;3648;50.614;13.830;2023-08-30T07:00:25;2.90;;;2.70;;
7213;SDS011;3648;50.614;13.830;2023-08-30T07:02:52;3.83;;;2.47;;
7213;SDS011;3648;50.614;13.830;2023-08-30T07:05:19;4.37;;;2.97;;
7213;SDS011;3648;50.614;13.830;2023-08-30T07:07:46;2.67;;;2.47;;
7213;SDS011;3648;50.614;13.830;2023-08-30T07:10:14;4.03;;;3.20;;
7213;SDS011;3648;50.614;13.830;2023-08-30T07:12:42;3.10;;;2.87;;
7213;SDS011;3648;50.614;13.830;2023-08-30T07:15:10;3.33;;;3.03;;
7213;SDS011;3648;50.614;13.830;2023-08-30T07:17:37;4.27;;;3.57;;
7213;SDS011;3648;50.614;13.830;2023-08-30T07:20:08;5.13;;;3.50;;
7213;SDS011;3648;50.614;13.830;2023-08-30T07:22:35;3.90;;;3.53;;
7213;SDS011;3648;50.614;13.830;2023-08-30T07:25:02;3.60;;;3.30;;
7213;SDS011;3648;50.614;13.830;2023-08-30T07:27:32;4.17;;;3.80;;
7213;SDS011;3648;50.614;13.830;2023-08-30T07:29:59;4.10;;;3.80;;
7213;SDS011;3648;50.614;13.830;2023-08-30T07:32:26;5.13;;;3.37;;
7213;SDS011;3648;50.614;13.830;2023-08-30T07:34:53;3.77;;;3.47;;
7213;SDS011;3648;50.614;13.830;2023-08-30T07:37:20;3.73;;;3.43;;
7213;SDS011;3648;50.614;13.830;2023-08-30T07:39:48;3.97;;;3.57;;
7213;SDS011;3648;50.614;13.830;2023-08-30T07:42:17;4.20;;;3.80;;
7213;SDS011;3648;50.614;13.830;2023-08-30T07:44:45;4.17;;;3.77;;
7213;SDS011;3648;50.614;13.830;2023-08-30T07:47:12;4.23;;;3.83;;
7213;SDS011;3648;50.614;13.830;2023-08-30T07:49:40;4.30;;;4.00;;
7213;SDS011;3648;50.614;13.830;2023-08-30T07:52:08;4.83;;;3.70;;
7213;SDS011;3648;50.614;13.830;2023-08-30T07:54:36;4.93;;;4.07;;
7213;SDS011;3648;50.614;13.830;2023-08-30T07:57:06;4.13;;;3.70;;
7213;SDS011;3648;50.614;13.830;2023-08-30T07:59:33;4.53;;;4.13;;
7213;SDS011;3648;50.614;13.830;2023-08-30T08:02:02;4.00;;;3.70;;
7213;SDS011;3648;50.614;13.830;2023-08-30T08:04:31;4.97;;;4.57;;
7213;SDS011;3648;50.614;13.830;2023-08-30T08:06:58;5.73;;;5.23;;
7213;SDS011;3648;50.614;13.830;2023-08-30T08:09:25;5.07;;;4.63;;
7213;SDS011;3648;50.614;13.830;2023-08-30T08:11:53;5.40;;;4.90;;
7213;SDS011;3648;50.614;13.830;2023-08-30T08:14:21;5.50;;;5.00;;
7213;SDS011;3648;50.614;13.830;2023-08-30T08:16:48;5.80;;;5.20;;
7213;SDS011;3648;50.614;13.830;2023-08-30T08:19:16;5.83;;;5.33;;
7213;SDS011;3648;50.614;13.830;2023-08-30T08:21:45;5.60;;;5.00;;
7213;SDS011;3648;50.614;13.830;2023-08-30T08:24:12;5.60;;;5.10;;
7213;SDS011;3648;50.614;13.830;2023-08-30T08:26:39;4.73;;;4.23;;
7213;SDS011;3648;50.614;13.830;2023-08-30T08:29:06;4.73;;;4.33;;
7213;SDS011;3648;50.614;13.830;2023-08-30T08:31:33;4.93;;;4.37;;
7213;SDS011;3648;50.614;13.830;2023-08-30T08:34:07;8.03;;;4.57;;
7213;SDS011;3648;50.614;13.830;2023-08-30T08:36:37;5.73;;;5.23;;
7213;SDS011;3648;50.614;13.830;2023-08-30T08:39:06;4.93;;;4.50;;
7213;SDS011;3648;50.614;13.830;2023-08-30T08:41:44;3.97;;;3.60;;
7213;SDS011;3648;50.614;13.830;2023-08-30T08:44:12;3.70;;;3.40;;
7213;SDS011;3648;50.614;13.830;2023-08-30T08:46:40;3.40;;;3.17;;
7213;SDS011;3648;50.614;13.830;2023-08-30T08:49:09;3.63;;;2.80;;
7213;SDS011;3648;50.614;13.830;2023-08-30T08:51:40;3.30;;;3.03;;
7213;SDS011;3648;50.614;13.830;2023-08-30T08:54:08;2.60;;;2.40;;
7213;SDS011;3648;50.614;13.830;2023-08-30T08:56:36;2.77;;;2.57;;
7213;SDS011;3648;50.614;13.830;2023-08-30T08:59:04;2.90;;;2.67;;
7213;SDS011;3648;50.614;13.830;2023-08-30T09:01:33;2.67;;;2.47;;
7213;SDS011;3648;50.614;13.830;2023-08-30T09:04:03;2.87;;;2.67;;
7213;SDS011;3648;50.614;13.830;2023-08-30T09:06:32;2.23;;;2.03;;
7213;SDS011;3648;50.614;13.830;2023-08-30T09:09:01;2.50;;;2.30;;
7213;SDS011;3648;50.614;13.830;2023-08-30T09:11:29;2.87;;;2.57;;
7213;SDS011;3648;50.614;13.830;2023-08-30T09:13:57;1.87;;;1.77;;
7213;SDS011;3648;50.614;13.830;2023-08-30T09:16:23;2.17;;;1.83;;
7213;SDS011;3648;50.614;13.830;2023-08-30T09:18:57;2.20;;;2.00;;
7213;SDS011;3648;50.614;13.830;2023-08-30T09:21:25;1.90;;;1.80;;
7213;SDS011;3648;50.614;13.830;2023-08-30T09:23:59;2.77;;;2.30;;
7213;SDS011;3648;50.614;13.830;2023-08-30T09:26:28;2.57;;;2.00;;
7213;SDS011;3648;50.614;13.830;2023-08-30T09:29:00;2.10;;;1.90;;
7213;SDS011;3648;50.614;13.830;2023-08-30T09:31:32;1.80;;;1.70;;
7213;SDS011;3648;50.614;13.830;2023-08-30T09:34:00;2.83;;;1.87;;
7213;SDS011;3648;50.614;13.830;2023-08-30T09:36:32;2.10;;;1.90;;
7213;SDS011;3648;50.614;13.830;2023-08-30T09:39:04;2.37;;;2.17;;
7213;SDS011;3648;50.614;13.830;2023-08-30T09:41:31;3.27;;;1.80;;
7213;SDS011;3648;50.614;13.830;2023-08-30T09:43:59;2.17;;;2.00;;
7213;SDS011;3648;50.614;13.830;2023-08-30T09:46:26;2.33;;;2.13;;
7213;SDS011;3648;50.614;13.830;2023-08-30T09:48:54;2.13;;;2.00;;
7213;SDS011;3648;50.614;13.830;2023-08-30T09:51:22;1.73;;;1.63;;
7213;SDS011;3648;50.614;13.830;2023-08-30T09:53:52;2.97;;;1.90;;
7213;SDS011;3648;50.614;13.830;2023-08-30T09:56:23;1.97;;;1.70;;
7213;SDS011;3648;50.614;13.830;2023-08-30T09:58:51;1.80;;;1.70;;
7213;SDS011;3648;50.614;13.830;2023-08-30T10:01:19;2.03;;;1.80;;
7213;SDS011;3648;50.614;13.830;2023-08-30T10:03:46;2.03;;;1.90;;
7213;SDS011;3648;50.614;13.830;2023-08-30T10:06:13;2.27;;;2.00;;
7213;SDS011;3648;50.614;13.830;2023-08-30T10:08:41;2.10;;;1.90;;
7213;SDS011;3648;50.614;13.830;2023-08-30T10:11:11;1.80;;;1.60;;
7213;SDS011;3648;50.614;13.830;2023-08-30T10:13:41;1.97;;;1.83;;
7213;SDS011;3648;50.614;13.830;2023-08-30T10:16:09;3.07;;;2.30;;
7213;SDS011;3648;50.614;13.830;2023-08-30T10:18:43;2.10;;;1.90;;
7213;SDS011;3648;50.614;13.830;2023-08-30T10:21:13;2.93;;;1.80;;
7213;SDS011;3648;50.614;13.830;2023-08-30T10:23:43;2.00;;;1.90;;
7213;SDS011;3648;50.614;13.830;2023-08-30T10:26:11;1.87;;;1.77;;
7213;SDS011;3648;50.614;13.830;2023-08-30T10:28:41;1.63;;;1.53;;
7213;SDS011;3648;50.614;13.830;2023-08-30T10:31:09;1.87;;;1.77;;
7213;SDS011;3648;50.614;13.830;2023-08-30T10:33:46;1.70;;;1.60;;
7213;SDS011;3648;50.614;13.830;2023-08-30T10:36:19;1.70;;;1.60;;
7213;SDS011;3648;50.614;13.830;2023-08-30T10:38:48;1.43;;;1.33;;
7213;SDS011;3648;50.614;13.830;2023-08-30T10:41:19;1.83;;;1.70;;
7213;SDS011;3648;50.614;13.830;2023-08-30T10:43:52;2.00;;;1.80;;
7213;SDS011;3648;50.614;13.830;2023-08-30T10:46:30;2.80;;;1.73;;
7213;SDS011;3648;50.614;13.830;2023-08-30T10:49:08;1.50;;;1.37;;
7213;SDS011;3648;50.614;13.830;2023-08-30T10:51:36;2.60;;;1.43;;
7213;SDS011;3648;50.614;13.830;2023-08-30T10:54:11;1.60;;;1.50;;
7213;SDS011;3648;50.614;13.830;2023-08-30T10:56:45;2.67;;;1.50;;
7213;SDS011;3648;50.614;13.830;2023-08-30T10:59:18;2.30;;;1.40;;
7213;SDS011;3648;50.614;13.830;2023-08-30T11:01:46;1.40;;;1.30;;
7213;SDS011;3648;50.614;13.830;2023-08-30T11:04:15;2.40;;;1.43;;
7213;SDS011;3648;50.614;13.830;2023-08-30T11:06:43;2.03;;;1.50;;
7213;SDS011;3648;50.614;13.830;2023-08-30T11:09:12;2.13;;;1.47;;
7213;SDS011;3648;50.614;13.830;2023-08-30T11:11:43;1.00;;;1.00;;
7213;SDS011;3648;50.614;13.830;2023-08-30T11:14:10;1.23;;;1.13;;
7213;SDS011;3648;50.614;13.830;2023-08-30T11:16:39;2.60;;;1.50;;
7213;SDS011;3648;50.614;13.830;2023-08-30T11:19:06;1.30;;;1.10;;
7213;SDS011;3648;50.614;13.830;2023-08-30T11:21:35;2.70;;;1.10;;
7213;SDS011;3648;50.614;13.830;2023-08-30T11:24:04;1.97;;;1.27;;
7213;SDS011;3648;50.614;13.830;2023-08-30T11:26:31;1.70;;;1.23;;
7213;SDS011;3648;50.614;13.830;2023-08-30T11:29:03;1.40;;;1.07;;
7213;SDS011;3648;50.614;13.830;2023-08-30T11:31:31;1.13;;;1.03;;
7213;SDS011;3648;50.614;13.830;2023-08-30T11:34:01;1.27;;;1.10;;
7213;SDS011;3648;50.614;13.830;2023-08-30T11:36:29;1.20;;;1.10;;
7213;SDS011;3648;50.614;13.830;2023-08-30T11:38:57;1.13;;;1.03;;
7213;SDS011;3648;50.614;13.830;2023-08-30T11:41:24;1.20;;;1.10;;
7213;SDS011;3648;50.614;13.830;2023-08-30T11:43:51;1.20;;;0.90;;
7213;SDS011;3648;50.614;13.830;2023-08-30T11:46:18;1.43;;;1.30;;
7213;SDS011;3648;50.614;13.830;2023-08-30T11:48:47;1.33;;;1.17;;
7213;SDS011;3648;50.614;13.830;2023-08-30T11:51:17;1.40;;;1.30;;
7213;SDS011;3648;50.614;13.830;2023-08-30T11:53:45;1.17;;;1.07;;
7213;SDS011;3648;50.614;13.830;2023-08-30T11:56:12;1.40;;;1.30;;
7213;SDS011;3648;50.614;13.830;2023-08-30T11:58:41;1.40;;;1.30;;
7213;SDS011;3648;50.614;13.830;2023-08-30T12:01:08;1.77;;;1.53;;
7213;SDS011;3648;50.614;13.830;2023-08-30T12:03:36;1.90;;;1.27;;
7213;SDS011;3648;50.614;13.830;2023-08-30T12:06:08;2.00;;;1.37;;
7213;SDS011;3648;50.614;13.830;2023-08-30T12:08:38;1.30;;;1.10;;
7213;SDS011;3648;50.614;13.830;2023-08-30T12:11:05;1.10;;;1.03;;
7213;SDS011;3648;50.614;13.830;2023-08-30T12:13:42;1.67;;;1.10;;
7213;SDS011;3648;50.614;13.830;2023-08-30T12:16:14;1.10;;;1.00;;
7213;SDS011;3648;50.614;13.830;2023-08-30T12:18:42;1.30;;;1.20;;
7213;SDS011;3648;50.614;13.830;2023-08-30T12:21:09;2.77;;;1.20;;
7213;SDS011;3648;50.614;13.830;2023-08-30T12:23:37;1.43;;;1.10;;
7213;SDS011;3648;50.614;13.830;2023-08-30T12:26:05;1.30;;;1.10;;
7213;SDS011;3648;50.614;13.830;2023-08-30T12:28:33;0.90;;;0.90;;
7213;SDS011;3648;50.614;13.830;2023-08-30T12:31:01;1.60;;;1.30;;
7213;SDS011;3648;50.614;13.830;2023-08-30T12:33:29;1.30;;;1.20;;
7213;SDS011;3648;50.614;13.830;2023-08-30T12:35:57;1.13;;;1.03;;
7213;SDS011;3648;50.614;13.830;2023-08-30T12:38:24;1.60;;;1.10;;
7213;SDS011;3648;50.614;13.830;2023-08-30T12:40:53;1.50;;;1.40;;
7213;SDS011;3648;50.614;13.830;2023-08-30T12:43:22;1.33;;;1.23;;
7213;SDS011;3648;50.614;13.830;2023-08-30T12:45:50;1.70;;;1.60;;
7213;SDS011;3648;50.614;13.830;2023-08-30T12:48:17;1.57;;;1.37;;
7213;SDS011;3648;50.614;13.830;2023-08-30T12:50:45;1.50;;;1.40;;
7213;SDS011;3648;50.614;13.830;2023-08-30T12:53:12;1.77;;;1.40;;
7213;SDS011;3648;50.614;13.830;2023-08-30T12:55:41;1.53;;;1.00;;
7213;SDS011;3648;50.614;13.830;2023-08-30T12:58:10;1.30;;;1.10;;
7213;SDS011;3648;50.614;13.830;2023-08-30T13:00:40;3.10;;;1.60;;
7213;SDS011;3648;50.614;13.830;2023-08-30T13:03:08;1.50;;;1.37;;
7213;SDS011;3648;50.614;13.830;2023-08-30T13:05:35;1.90;;;1.67;;
7213;SDS011;3648;50.614;13.830;2023-08-30T13:08:02;1.63;;;1.27;;
7213;SDS011;3648;50.614;13.830;2023-08-30T13:10:29;1.57;;;1.47;;
7213;SDS011;3648;50.614;13.830;2023-08-30T13:12:56;1.70;;;1.50;;
7213;SDS011;3648;50.614;13.830;2023-08-30T13:15:25;1.50;;;1.40;;
7213;SDS011;3648;50.614;13.830;2023-08-30T13:17:52;1.87;;;1.67;;
7213;SDS011;3648;50.614;13.830;2023-08-30T13:20:19;2.07;;;1.50;;
7213;SDS011;3648;50.614;13.830;2023-08-30T13:22:46;1.40;;;1.30;;
7213;SDS011;3648;50.614;13.830;2023-08-30T13:25:13;1.33;;;1.17;;
7213;SDS011;3648;50.614;13.830;2023-08-30T13:27:40;1.13;;;1.10;;
7213;SDS011;3648;50.614;13.830;2023-08-30T13:30:07;1.70;;;1.60;;
7213;SDS011;3648;50.614;13.830;2023-08-30T13:32:36;1.40;;;1.30;;
7213;SDS011;3648;50.614;13.830;2023-08-30T13:35:04;2.03;;;1.50;;
7213;SDS011;3648;50.614;13.830;2023-08-30T13:37:31;1.20;;;1.10;;
7213;SDS011;3648;50.614;13.830;2023-08-30T13:39:58;1.50;;;1.20;;
7213;SDS011;3648;50.614;13.830;2023-08-30T13:42:25;1.60;;;1.30;;
7213;SDS011;3648;50.614;13.830;2023-08-30T13:44:52;1.93;;;1.73;;
7213;SDS011;3648;50.614;13.830;2023-08-30T13:47:19;1.40;;;1.30;;
7213;SDS011;3648;50.614;13.830;2023-08-30T13:49:48;1.53;;;1.43;;
7213;SDS011;3648;50.614;13.830;2023-08-30T13:52:15;1.30;;;1.20;;
7213;SDS011;3648;50.614;13.830;2023-08-30T13:54:42;3.03;;;1.40;;
7213;SDS011;3648;50.614;13.830;2023-08-30T13:57:09;1.40;;;1.30;;
7213;SDS011;3648;50.614;13.830;2023-08-30T13:59:36;1.40;;;1.30;;
7213;SDS011;3648;50.614;13.830;2023-08-30T14:02:03;1.97;;;1.80;;
7213;SDS011;3648;50.614;13.830;2023-08-30T14:04:30;2.50;;;1.50;;
7213;SDS011;3648;50.614;13.830;2023-08-30T14:07:00;1.80;;;1.50;;
7213;SDS011;3648;50.614;13.830;2023-08-30T14:09:28;1.70;;;1.23;;
7213;SDS011;3648;50.614;13.830;2023-08-30T14:11:56;1.70;;;1.47;;
7213;SDS011;3648;50.614;13.830;2023-08-30T14:14:23;1.27;;;1.17;;
7213;SDS011;3648;50.614;13.830;2023-08-30T14:16:50;3.73;;;1.80;;
7213;SDS011;3648;50.614;13.830;2023-08-30T14:19:17;1.43;;;1.33;;
7213;SDS011;3648;50.614;13.830;2023-08-30T14:21:44;1.40;;;1.30;;
7213;SDS011;3648;50.614;13.830;2023-08-30T14:24:12;1.57;;;1.30;;
7213;SDS011;3648;50.614;13.830;2023-08-30T14:26:40;1.80;;;1.70;;
7213;SDS011;3648;50.614;13.830;2023-08-30T14:29:07;2.07;;;1.37;;
7213;SDS011;3648;50.614;13.830;2023-08-30T14:31:33;1.30;;;1.20;;
7213;SDS011;3648;50.614;13.830;2023-08-30T14:34:00;1.50;;;1.40;;
7213;SDS011;3648;50.614;13.830;2023-08-30T14:36:27;1.40;;;1.30;;
7213;SDS011;3648;50.614;13.830;2023-08-30T14:38:54;2.47;;;1.67;;
7213;SDS011;3648;50.614;13.830;2023-08-30T14:41:23;2.20;;;1.90;;
7213;SDS011;3648;50.614;13.830;2023-08-30T14:43:50;2.43;;;1.30;;
7213;SDS011;3648;50.614;13.830;2023-08-30T14:46:17;2.67;;;1.53;;
7213;SDS011;3648;50.614;13.830;2023-08-30T14:48:44;2.37;;;1.57;;
7213;SDS011;3648;50.614;13.830;2023-08-30T14:51:12;2.13;;;1.70;;
7213;SDS011;3648;50.614;13.830;2023-08-30T14:53:39;3.20;;;1.73;;
7213;SDS011;3648;50.614;13.830;2023-08-30T14:56:06;2.30;;;1.87;;
7213;SDS011;3648;50.614;13.830;2023-08-30T14:58:34;2.23;;;2.03;;
7213;SDS011;3648;50.614;13.830;2023-08-30T15:01:02;2.67;;;2.47;;
7213;SDS011;3648;50.614;13.830;2023-08-30T15:03:29;2.23;;;2.03;;
7213;SDS011;3648;50.614;13.830;2023-08-30T15:05:56;1.93;;;1.83;;